sensor_id;sensor_type;location;lat;lon;timestamp;P1;durP1;ratioP1;P2;durP2;ratioP2
69744;SDS011;57015;50.120;-5.168;2022-09-09T00:00:14;9.35;;;1.38;;
69744;SDS011;57015;50.120;-5.168;2022-09-09T00:03:02;9.27;;;1.27;;
69744;SDS011;57015;50.120;-5.168;2022-09-09T00:08:16;6.18;;;1.38;;
69744;SDS011;57015;50.120;-5.168;2022-09-09T00:10:44;7.22;;;1.00;;
69744;SDS011;57015;50.120;-5.168;2022-09-09T00:21:20;5.00;;;1.10;;
69744;SDS011;57015;50.120;-5.168;2022-09-09T00:23:53;5.00;;;0.95;;
69744;SDS011;57015;50.120;-5.168;2022-09-09T00:29:00;6.40;;;1.50;;
69744;SDS011;57015;50.120;-5.168;2022-09-09T00:31:36;7.32;;;1.30;;
69744;SDS011;57015;50.120;-5.168;2022-09-09T00:34:21;6.00;;;1.52;;
69744;SDS011;57015;50.120;-5.168;2022-09-09T00:36:49;7.85;;;1.60;;
69744;SDS011;57015;50.120;-5.168;2022-09-09T00:42:19;7.65;;;1.30;;
69744;SDS011;57015;50.120;-5.168;2022-09-09T00:55:37;7.00;;;1.35;;
69744;SDS011;57015;50.120;-5.168;2022-09-09T00:58:08;4.05;;;1.05;;
69744;SDS011;57015;50.120;-5.168;2022-09-09T01:03:35;3.83;;;1.33;;
69744;SDS011;57015;50.120;-5.168;2022-09-09T01:06:33;7.70;;;1.50;;
69744;SDS011;57015;50.120;-5.168;2022-09-09T01:09:18;7.78;;;1.45;;
69744;SDS011;57015;50.120;-5.168;2022-09-09T01:14:54;3.83;;;1.30;;
69744;SDS011;57015;50.120;-5.168;2022-09-09T01:17:31;6.30;;;1.52;;
69744;SDS011;57015;50.120;-5.168;2022-09-09T01:20:20;7.03;;;1.50;;
69744;SDS011;57015;50.120;-5.168;2022-09-09T01:28:22;8.43;;;2.13;;
69744;SDS011;57015;50.120;-5.168;2022-09-09T01:30:50;9.90;;;2.60;;
69744;SDS011;57015;50.120;-5.168;2022-09-09T01:33:16;8.23;;;1.97;;
69744;SDS011;57015;50.120;-5.168;2022-09-09T01:35:48;8.10;;;2.10;;
69744;SDS011;57015;50.120;-5.168;2022-09-09T01:38:15;5.90;;;1.98;;
69744;SDS011;57015;50.120;-5.168;2022-09-09T01:40:41;5.40;;;1.90;;
69744;SDS011;57015;50.120;-5.168;2022-09-09T01:43:07;5.90;;;2.20;;
69744;SDS011;57015;50.120;-5.168;2022-09-09T01:45:33;7.70;;;2.40;;
69744;SDS011;57015;50.120;-5.168;2022-09-09T01:47:58;7.22;;;2.20;;
69744;SDS011;57015;50.120;-5.168;2022-09-09T01:50:24;7.07;;;1.80;;
69744;SDS011;57015;50.120;-5.168;2022-09-09T01:52:52;8.32;;;2.40;;
69744;SDS011;57015;50.120;-5.168;2022-09-09T01:55:22;6.90;;;1.80;;
69744;SDS011;57015;50.120;-5.168;2022-09-09T01:58:19;11.37;;;1.97;;
69744;SDS011;57015;50.120;-5.168;2022-09-09T02:01:25;6.22;;;1.95;;
69744;SDS011;57015;50.120;-5.168;2022-09-09T02:04:02;7.68;;;2.40;;
69744;SDS011;57015;50.120;-5.168;2022-09-09T02:06:39;8.27;;;2.22;;
69744;SDS011;57015;50.120;-5.168;2022-09-09T02:09:06;8.70;;;2.35;;
69744;SDS011;57015;50.120;-5.168;2022-09-09T02:11:33;6.93;;;1.70;;
69744;SDS011;57015;50.120;-5.168;2022-09-09T02:14:06;7.93;;;2.35;;
69744;SDS011;57015;50.120;-5.168;2022-09-09T02:19:12;8.73;;;1.70;;
69744;SDS011;57015;50.120;-5.168;2022-09-09T02:21:42;6.47;;;1.80;;
69744;SDS011;57015;50.120;-5.168;2022-09-09T02:24:09;10.67;;;2.00;;
69744;SDS011;57015;50.120;-5.168;2022-09-09T02:26:40;12.65;;;2.03;;
69744;SDS011;57015;50.120;-5.168;2022-09-09T02:29:21;4.45;;;1.42;;
69744;SDS011;57015;50.120;-5.168;2022-09-09T02:31:49;8.05;;;1.92;;
69744;SDS011;57015;50.120;-5.168;2022-09-09T02:34:15;8.20;;;1.75;;
69744;SDS011;57015;50.120;-5.168;2022-09-09T02:36:43;6.47;;;1.63;;
69744;SDS011;57015;50.120;-5.168;2022-09-09T02:39:10;5.72;;;2.10;;
69744;SDS011;57015;50.120;-5.168;2022-09-09T02:41:37;6.70;;;1.90;;
69744;SDS011;57015;50.120;-5.168;2022-09-09T02:44:11;8.48;;;2.40;;
69744;SDS011;57015;50.120;-5.168;2022-09-09T02:52:20;4.40;;;1.65;;
69744;SDS011;57015;50.120;-5.168;2022-09-09T02:54:51;9.60;;;2.03;;
69744;SDS011;57015;50.120;-5.168;2022-09-09T02:57:29;13.55;;;2.58;;
69744;SDS011;57015;50.120;-5.168;2022-09-09T02:59:57;8.03;;;2.20;;
69744;SDS011;57015;50.120;-5.168;2022-09-09T03:02:22;7.30;;;1.98;;
69744;SDS011;57015;50.120;-5.168;2022-09-09T03:04:49;5.55;;;1.98;;
69744;SDS011;57015;50.120;-5.168;2022-09-09T03:07:17;7.80;;;2.08;;
69744;SDS011;57015;50.120;-5.168;2022-09-09T03:09:43;9.73;;;2.20;;
69744;SDS011;57015;50.120;-5.168;2022-09-09T03:12:08;10.67;;;2.60;;
69744;SDS011;57015;50.120;-5.168;2022-09-09T03:14:35;11.25;;;2.05;;
69744;SDS011;57015;50.120;-5.168;2022-09-09T03:17:00;6.47;;;2.10;;
69744;SDS011;57015;50.120;-5.168;2022-09-09T03:19:27;5.88;;;2.47;;
69744;SDS011;57015;50.120;-5.168;2022-09-09T03:21:53;8.63;;;2.37;;
69744;SDS011;57015;50.120;-5.168;2022-09-09T03:24:18;5.72;;;2.03;;
69744;SDS011;57015;50.120;-5.168;2022-09-09T03:26:44;7.27;;;2.10;;
69744;SDS011;57015;50.120;-5.168;2022-09-09T03:29:10;5.60;;;1.80;;
69744;SDS011;57015;50.120;-5.168;2022-09-09T03:31:39;10.27;;;2.03;;
69744;SDS011;57015;50.120;-5.168;2022-09-09T03:34:05;8.03;;;2.53;;
69744;SDS011;57015;50.120;-5.168;2022-09-09T03:36:31;7.15;;;2.30;;
69744;SDS011;57015;50.120;-5.168;2022-09-09T03:38:57;7.23;;;3.03;;
69744;SDS011;57015;50.120;-5.168;2022-09-09T03:41:23;5.20;;;2.40;;
69744;SDS011;57015;50.120;-5.168;2022-09-09T03:43:51;8.27;;;1.80;;
69744;SDS011;57015;50.120;-5.168;2022-09-09T03:46:18;5.00;;;1.93;;
69744;SDS011;57015;50.120;-5.168;2022-09-09T03:48:43;6.35;;;1.73;;
69744;SDS011;57015;50.120;-5.168;2022-09-09T03:51:09;8.05;;;2.10;;
69744;SDS011;57015;50.120;-5.168;2022-09-09T03:53:35;6.28;;;2.22;;
69744;SDS011;57015;50.120;-5.168;2022-09-09T03:56:01;7.20;;;2.85;;
69744;SDS011;57015;50.120;-5.168;2022-09-09T03:58:28;10.55;;;2.78;;
69744;SDS011;57015;50.120;-5.168;2022-09-09T04:00:54;8.57;;;2.27;;
69744;SDS011;57015;50.120;-5.168;2022-09-09T04:03:26;8.35;;;2.47;;
69744;SDS011;57015;50.120;-5.168;2022-09-09T04:05:52;6.78;;;2.47;;
69744;SDS011;57015;50.120;-5.168;2022-09-09T04:08:18;7.73;;;2.60;;
69744;SDS011;57015;50.120;-5.168;2022-09-09T04:10:48;11.02;;;2.70;;
69744;SDS011;57015;50.120;-5.168;2022-09-09T04:13:15;8.23;;;2.50;;
69744;SDS011;57015;50.120;-5.168;2022-09-09T04:15:42;7.90;;;2.22;;
69744;SDS011;57015;50.120;-5.168;2022-09-09T04:18:09;10.63;;;2.85;;
69744;SDS011;57015;50.120;-5.168;2022-09-09T04:20:34;12.50;;;2.90;;
69744;SDS011;57015;50.120;-5.168;2022-09-09T04:23:00;10.87;;;2.33;;
69744;SDS011;57015;50.120;-5.168;2022-09-09T04:25:26;9.38;;;2.90;;
69744;SDS011;57015;50.120;-5.168;2022-09-09T04:27:55;5.07;;;2.17;;
69744;SDS011;57015;50.120;-5.168;2022-09-09T04:30:21;8.75;;;2.97;;
69744;SDS011;57015;50.120;-5.168;2022-09-09T04:32:47;5.57;;;3.03;;
69744;SDS011;57015;50.120;-5.168;2022-09-09T04:35:12;7.97;;;2.80;;
69744;SDS011;57015;50.120;-5.168;2022-09-09T04:37:38;8.20;;;2.63;;
69744;SDS011;57015;50.120;-5.168;2022-09-09T04:40:03;13.63;;;3.00;;
69744;SDS011;57015;50.120;-5.168;2022-09-09T04:42:29;9.95;;;3.47;;
69744;SDS011;57015;50.120;-5.168;2022-09-09T04:44:55;7.80;;;2.90;;
69744;SDS011;57015;50.120;-5.168;2022-09-09T04:47:20;6.90;;;2.67;;
69744;SDS011;57015;50.120;-5.168;2022-09-09T04:49:46;8.70;;;2.92;;
69744;SDS011;57015;50.120;-5.168;2022-09-09T04:52:12;10.35;;;3.10;;
69744;SDS011;57015;50.120;-5.168;2022-09-09T04:54:37;10.07;;;3.37;;
69744;SDS011;57015;50.120;-5.168;2022-09-09T04:57:03;11.95;;;3.33;;
69744;SDS011;57015;50.120;-5.168;2022-09-09T04:59:29;5.97;;;2.37;;
69744;SDS011;57015;50.120;-5.168;2022-09-09T05:01:55;8.15;;;3.35;;
69744;SDS011;57015;50.120;-5.168;2022-09-09T05:04:20;10.52;;;2.88;;
69744;SDS011;57015;50.120;-5.168;2022-09-09T05:06:46;10.40;;;2.83;;
69744;SDS011;57015;50.120;-5.168;2022-09-09T05:09:11;13.13;;;3.33;;
69744;SDS011;57015;50.120;-5.168;2022-09-09T05:11:37;9.53;;;3.07;;
69744;SDS011;57015;50.120;-5.168;2022-09-09T05:14:03;11.18;;;2.80;;
69744;SDS011;57015;50.120;-5.168;2022-09-09T05:16:28;10.27;;;2.83;;
69744;SDS011;57015;50.120;-5.168;2022-09-09T05:18:55;6.63;;;3.10;;
69744;SDS011;57015;50.120;-5.168;2022-09-09T05:21:21;9.40;;;3.00;;
69744;SDS011;57015;50.120;-5.168;2022-09-09T05:23:48;6.63;;;3.15;;
69744;SDS011;57015;50.120;-5.168;2022-09-09T05:26:19;7.17;;;2.80;;
69744;SDS011;57015;50.120;-5.168;2022-09-09T05:28:45;11.40;;;3.22;;
69744;SDS011;57015;50.120;-5.168;2022-09-09T05:31:12;8.65;;;2.83;;
69744;SDS011;57015;50.120;-5.168;2022-09-09T05:33:39;9.63;;;2.75;;
69744;SDS011;57015;50.120;-5.168;2022-09-09T05:36:09;8.55;;;3.13;;
69744;SDS011;57015;50.120;-5.168;2022-09-09T05:38:38;7.53;;;3.17;;
69744;SDS011;57015;50.120;-5.168;2022-09-09T05:41:04;10.82;;;3.10;;
69744;SDS011;57015;50.120;-5.168;2022-09-09T05:43:30;9.02;;;3.08;;
69744;SDS011;57015;50.120;-5.168;2022-09-09T05:48:36;9.65;;;2.60;;
69744;SDS011;57015;50.120;-5.168;2022-09-09T05:51:07;7.70;;;2.88;;
69744;SDS011;57015;50.120;-5.168;2022-09-09T05:53:35;11.38;;;2.58;;
69744;SDS011;57015;50.120;-5.168;2022-09-09T05:56:02;9.33;;;2.60;;
69744;SDS011;57015;50.120;-5.168;2022-09-09T05:58:33;8.93;;;2.58;;
69744;SDS011;57015;50.120;-5.168;2022-09-09T06:03:35;5.65;;;2.20;;
69744;SDS011;57015;50.120;-5.168;2022-09-09T06:06:02;8.77;;;2.03;;
69744;SDS011;57015;50.120;-5.168;2022-09-09T06:08:32;9.27;;;2.42;;
69744;SDS011;57015;50.120;-5.168;2022-09-09T06:11:05;11.13;;;2.45;;
69744;SDS011;57015;50.120;-5.168;2022-09-09T06:13:35;10.00;;;2.30;;
69744;SDS011;57015;50.120;-5.168;2022-09-09T06:16:03;8.77;;;2.72;;
69744;SDS011;57015;50.120;-5.168;2022-09-09T06:18:29;9.30;;;2.10;;
69744;SDS011;57015;50.120;-5.168;2022-09-09T06:20:59;9.73;;;1.90;;
69744;SDS011;57015;50.120;-5.168;2022-09-09T06:23:26;10.63;;;2.43;;
69744;SDS011;57015;50.120;-5.168;2022-09-09T06:25:52;10.32;;;2.20;;
69744;SDS011;57015;50.120;-5.168;2022-09-09T06:28:25;10.55;;;2.45;;
69744;SDS011;57015;50.120;-5.168;2022-09-09T06:30:56;9.53;;;2.10;;
69744;SDS011;57015;50.120;-5.168;2022-09-09T06:33:23;11.68;;;2.40;;
69744;SDS011;57015;50.120;-5.168;2022-09-09T06:35:52;11.67;;;2.23;;
69744;SDS011;57015;50.120;-5.168;2022-09-09T06:38:18;9.55;;;2.13;;
69744;SDS011;57015;50.120;-5.168;2022-09-09T06:40:50;10.67;;;2.37;;
69744;SDS011;57015;50.120;-5.168;2022-09-09T06:43:16;10.15;;;2.03;;
69744;SDS011;57015;50.120;-5.168;2022-09-09T06:45:42;7.88;;;2.20;;
69744;SDS011;57015;50.120;-5.168;2022-09-09T06:48:08;11.17;;;2.37;;
69744;SDS011;57015;50.120;-5.168;2022-09-09T06:50:33;10.73;;;1.88;;
69744;SDS011;57015;50.120;-5.168;2022-09-09T06:52:59;8.97;;;1.80;;
69744;SDS011;57015;50.120;-5.168;2022-09-09T06:55:25;10.80;;;2.13;;
69744;SDS011;57015;50.120;-5.168;2022-09-09T06:57:50;8.70;;;2.60;;
69744;SDS011;57015;50.120;-5.168;2022-09-09T07:00:16;10.10;;;2.25;;
69744;SDS011;57015;50.120;-5.168;2022-09-09T07:02:43;12.43;;;2.33;;
69744;SDS011;57015;50.120;-5.168;2022-09-09T07:05:09;10.02;;;2.25;;
69744;SDS011;57015;50.120;-5.168;2022-09-09T07:07:34;10.97;;;2.60;;
69744;SDS011;57015;50.120;-5.168;2022-09-09T07:10:00;13.63;;;2.57;;
69744;SDS011;57015;50.120;-5.168;2022-09-09T07:12:25;15.33;;;2.27;;
69744;SDS011;57015;50.120;-5.168;2022-09-09T07:14:50;9.67;;;2.47;;
69744;SDS011;57015;50.120;-5.168;2022-09-09T07:17:16;8.18;;;2.00;;
69744;SDS011;57015;50.120;-5.168;2022-09-09T07:19:41;10.37;;;2.10;;
69744;SDS011;57015;50.120;-5.168;2022-09-09T07:22:08;10.17;;;2.50;;
69744;SDS011;57015;50.120;-5.168;2022-09-09T07:24:34;15.23;;;2.05;;
69744;SDS011;57015;50.120;-5.168;2022-09-09T07:26:59;14.90;;;2.73;;
69744;SDS011;57015;50.120;-5.168;2022-09-09T07:29:24;8.88;;;1.80;;
69744;SDS011;57015;50.120;-5.168;2022-09-09T07:31:50;9.15;;;2.47;;
69744;SDS011;57015;50.120;-5.168;2022-09-09T07:34:15;14.33;;;2.57;;
69744;SDS011;57015;50.120;-5.168;2022-09-09T07:36:40;11.03;;;2.20;;
69744;SDS011;57015;50.120;-5.168;2022-09-09T07:39:08;11.25;;;2.05;;
69744;SDS011;57015;50.120;-5.168;2022-09-09T07:41:38;13.10;;;2.40;;
69744;SDS011;57015;50.120;-5.168;2022-09-09T07:44:06;11.82;;;2.10;;
69744;SDS011;57015;50.120;-5.168;2022-09-09T07:46:33;11.00;;;2.70;;
69744;SDS011;57015;50.120;-5.168;2022-09-09T07:48:59;10.45;;;2.50;;
69744;SDS011;57015;50.120;-5.168;2022-09-09T07:51:27;9.52;;;2.05;;
69744;SDS011;57015;50.120;-5.168;2022-09-09T07:53:55;12.47;;;2.00;;
69744;SDS011;57015;50.120;-5.168;2022-09-09T07:56:25;9.80;;;2.40;;
69744;SDS011;57015;50.120;-5.168;2022-09-09T07:58:52;10.82;;;2.38;;
69744;SDS011;57015;50.120;-5.168;2022-09-09T08:01:23;9.52;;;2.25;;
69744;SDS011;57015;50.120;-5.168;2022-09-09T08:04:00;6.50;;;2.33;;
69744;SDS011;57015;50.120;-5.168;2022-09-09T08:06:31;9.83;;;2.00;;
69744;SDS011;57015;50.120;-5.168;2022-09-09T08:08:58;10.00;;;1.73;;
69744;SDS011;57015;50.120;-5.168;2022-09-09T08:11:25;11.27;;;2.42;;
69744;SDS011;57015;50.120;-5.168;2022-09-09T08:13:51;11.20;;;2.15;;
69744;SDS011;57015;50.120;-5.168;2022-09-09T08:16:18;8.90;;;2.20;;
69744;SDS011;57015;50.120;-5.168;2022-09-09T08:18:48;8.15;;;2.15;;
69744;SDS011;57015;50.120;-5.168;2022-09-09T08:21:21;10.45;;;1.95;;
69744;SDS011;57015;50.120;-5.168;2022-09-09T08:23:49;7.97;;;2.40;;
69744;SDS011;57015;50.120;-5.168;2022-09-09T08:26:18;8.73;;;2.37;;
69744;SDS011;57015;50.120;-5.168;2022-09-09T08:28:47;12.90;;;2.67;;
69744;SDS011;57015;50.120;-5.168;2022-09-09T08:31:14;12.70;;;2.05;;
69744;SDS011;57015;50.120;-5.168;2022-09-09T08:33:43;14.63;;;2.55;;
69744;SDS011;57015;50.120;-5.168;2022-09-09T08:36:12;11.82;;;1.80;;
69744;SDS011;57015;50.120;-5.168;2022-09-09T08:38:51;16.07;;;2.90;;
69744;SDS011;57015;50.120;-5.168;2022-09-09T08:46:50;13.70;;;2.92;;
69744;SDS011;57015;50.120;-5.168;2022-09-09T08:55:52;9.43;;;2.60;;
69744;SDS011;57015;50.120;-5.168;2022-09-09T09:00:58;8.77;;;2.58;;
69744;SDS011;57015;50.120;-5.168;2022-09-09T09:11:45;8.18;;;2.60;;
69744;SDS011;57015;50.120;-5.168;2022-09-09T09:14:23;8.88;;;2.38;;
69744;SDS011;57015;50.120;-5.168;2022-09-09T09:17:03;11.48;;;2.78;;
69744;SDS011;57015;50.120;-5.168;2022-09-09T09:19:34;7.90;;;2.40;;
69744;SDS011;57015;50.120;-5.168;2022-09-09T09:22:04;5.63;;;1.77;;
69744;SDS011;57015;50.120;-5.168;2022-09-09T09:24:42;9.85;;;2.35;;
69744;SDS011;57015;50.120;-5.168;2022-09-09T09:27:34;8.80;;;2.53;;
69744;SDS011;57015;50.120;-5.168;2022-09-09T09:30:02;8.25;;;2.42;;
69744;SDS011;57015;50.120;-5.168;2022-09-09T09:32:36;6.80;;;1.90;;
69744;SDS011;57015;50.120;-5.168;2022-09-09T09:35:06;10.90;;;2.83;;
69744;SDS011;57015;50.120;-5.168;2022-09-09T09:37:35;8.55;;;2.17;;
69744;SDS011;57015;50.120;-5.168;2022-09-09T09:40:14;8.17;;;1.57;;
69744;SDS011;57015;50.120;-5.168;2022-09-09T09:42:57;11.55;;;1.98;;
69744;SDS011;57015;50.120;-5.168;2022-09-09T09:45:34;7.10;;;1.70;;
69744;SDS011;57015;50.120;-5.168;2022-09-09T09:48:08;8.80;;;1.75;;
69744;SDS011;57015;50.120;-5.168;2022-09-09T09:50:34;6.85;;;1.63;;
69744;SDS011;57015;50.120;-5.168;2022-09-09T09:53:02;10.07;;;2.13;;
69744;SDS011;57015;50.120;-5.168;2022-09-09T09:55:29;6.65;;;1.83;;
69744;SDS011;57015;50.120;-5.168;2022-09-09T09:58:05;10.63;;;2.22;;
69744;SDS011;57015;50.120;-5.168;2022-09-09T10:00:31;8.10;;;1.88;;
69744;SDS011;57015;50.120;-5.168;2022-09-09T10:02:58;9.73;;;1.43;;
69744;SDS011;57015;50.120;-5.168;2022-09-09T10:05:28;6.25;;;1.75;;
69744;SDS011;57015;50.120;-5.168;2022-09-09T10:08:05;10.70;;;1.60;;
69744;SDS011;57015;50.120;-5.168;2022-09-09T10:13:20;7.32;;;1.50;;
69744;SDS011;57015;50.120;-5.168;2022-09-09T10:18:38;8.23;;;1.90;;
69744;SDS011;57015;50.120;-5.168;2022-09-09T10:42:46;8.23;;;1.40;;
69744;SDS011;57015;50.120;-5.168;2022-09-09T10:53:34;6.43;;;1.30;;
69744;SDS011;57015;50.120;-5.168;2022-09-09T10:56:23;8.15;;;1.30;;
69744;SDS011;57015;50.120;-5.168;2022-09-09T11:01:21;4.03;;;0.98;;
69744;SDS011;57015;50.120;-5.168;2022-09-09T11:04:32;5.83;;;1.33;;
69744;SDS011;57015;50.120;-5.168;2022-09-09T11:06:53;8.23;;;1.10;;
69744;SDS011;57015;50.120;-5.168;2022-09-09T11:09:27;8.35;;;1.38;;
69744;SDS011;57015;50.120;-5.168;2022-09-09T11:11:55;5.20;;;1.63;;
69744;SDS011;57015;50.120;-5.168;2022-09-09T11:14:24;7.70;;;1.30;;
69744;SDS011;57015;50.120;-5.168;2022-09-09T11:16:53;5.90;;;1.37;;
69744;SDS011;57015;50.120;-5.168;2022-09-09T11:21:52;7.05;;;1.50;;
69744;SDS011;57015;50.120;-5.168;2022-09-09T11:27:27;6.32;;;1.60;;
69744;SDS011;57015;50.120;-5.168;2022-09-09T11:40:39;5.72;;;1.83;;
69744;SDS011;57015;50.120;-5.168;2022-09-09T11:45:42;6.13;;;0.80;;
69744;SDS011;57015;50.120;-5.168;2022-09-09T11:48:23;6.60;;;1.30;;
69744;SDS011;57015;50.120;-5.168;2022-09-09T11:50:59;5.43;;;1.13;;
69744;SDS011;57015;50.120;-5.168;2022-09-09T11:53:32;6.88;;;1.02;;
69744;SDS011;57015;50.120;-5.168;2022-09-09T11:56:09;7.00;;;1.30;;
69744;SDS011;57015;50.120;-5.168;2022-09-09T11:58:37;3.30;;;1.02;;
69744;SDS011;57015;50.120;-5.168;2022-09-09T12:01:16;6.03;;;1.25;;
69744;SDS011;57015;50.120;-5.168;2022-09-09T12:04:11;6.47;;;0.87;;
69744;SDS011;57015;50.120;-5.168;2022-09-09T12:06:44;4.90;;;1.10;;
69744;SDS011;57015;50.120;-5.168;2022-09-09T12:17:23;7.18;;;1.20;;
69744;SDS011;57015;50.120;-5.168;2022-09-09T12:20:00;7.13;;;1.07;;
69744;SDS011;57015;50.120;-5.168;2022-09-09T12:28:52;5.78;;;1.08;;
69744;SDS011;57015;50.120;-5.168;2022-09-09T12:31:27;5.72;;;1.27;;
69744;SDS011;57015;50.120;-5.168;2022-09-09T12:34:18;4.87;;;1.10;;
69744;SDS011;57015;50.120;-5.168;2022-09-09T12:36:55;4.72;;;0.95;;
69744;SDS011;57015;50.120;-5.168;2022-09-09T12:42:03;8.15;;;1.50;;
69744;SDS011;57015;50.120;-5.168;2022-09-09T12:44:29;6.97;;;1.33;;
69744;SDS011;57015;50.120;-5.168;2022-09-09T12:46:55;5.13;;;0.95;;
69744;SDS011;57015;50.120;-5.168;2022-09-09T12:51:54;5.30;;;0.98;;
69744;SDS011;57015;50.120;-5.168;2022-09-09T12:54:20;6.00;;;0.90;;
69744;SDS011;57015;50.120;-5.168;2022-09-09T12:56:46;6.07;;;0.85;;
69744;SDS011;57015;50.120;-5.168;2022-09-09T13:00:03;9.63;;;0.93;;
69744;SDS011;57015;50.120;-5.168;2022-09-09T13:02:09;6.05;;;1.38;;
69744;SDS011;57015;50.120;-5.168;2022-09-09T13:04:41;6.00;;;1.30;;
69744;SDS011;57015;50.120;-5.168;2022-09-09T13:07:07;5.40;;;1.27;;
69744;SDS011;57015;50.120;-5.168;2022-09-09T13:09:34;7.27;;;1.00;;
69744;SDS011;57015;50.120;-5.168;2022-09-09T13:12:00;7.28;;;0.77;;
69744;SDS011;57015;50.120;-5.168;2022-09-09T13:14:31;6.43;;;1.00;;
69744;SDS011;57015;50.120;-5.168;2022-09-09T13:17:00;5.70;;;0.73;;
69744;SDS011;57015;50.120;-5.168;2022-09-09T13:19:27;6.75;;;1.10;;
69744;SDS011;57015;50.120;-5.168;2022-09-09T13:21:54;5.95;;;0.90;;
69744;SDS011;57015;50.120;-5.168;2022-09-09T13:29:22;3.45;;;0.80;;
69744;SDS011;57015;50.120;-5.168;2022-09-09T13:31:48;8.50;;;0.97;;
69744;SDS011;57015;50.120;-5.168;2022-09-09T13:34:30;4.28;;;0.63;;
69744;SDS011;57015;50.120;-5.168;2022-09-09T13:37:01;9.45;;;1.25;;
69744;SDS011;57015;50.120;-5.168;2022-09-09T13:39:30;4.77;;;0.70;;
69744;SDS011;57015;50.120;-5.168;2022-09-09T13:41:57;4.28;;;0.80;;
69744;SDS011;57015;50.120;-5.168;2022-09-09T13:44:24;5.22;;;0.70;;
69744;SDS011;57015;50.120;-5.168;2022-09-09T13:47:01;6.97;;;0.82;;
69744;SDS011;57015;50.120;-5.168;2022-09-09T13:49:29;5.95;;;1.05;;
69744;SDS011;57015;50.120;-5.168;2022-09-09T13:52:11;11.97;;;1.07;;
69744;SDS011;57015;50.120;-5.168;2022-09-09T13:54:48;5.80;;;0.75;;
69744;SDS011;57015;50.120;-5.168;2022-09-09T13:57:16;8.88;;;1.23;;
69744;SDS011;57015;50.120;-5.168;2022-09-09T13:59:50;5.38;;;0.90;;
69744;SDS011;57015;50.120;-5.168;2022-09-09T14:02:17;4.82;;;1.17;;
69744;SDS011;57015;50.120;-5.168;2022-09-09T14:04:43;10.53;;;1.33;;
69744;SDS011;57015;50.120;-5.168;2022-09-09T14:07:10;6.47;;;1.00;;
69744;SDS011;57015;50.120;-5.168;2022-09-09T14:09:37;5.45;;;1.10;;
69744;SDS011;57015;50.120;-5.168;2022-09-09T14:12:02;6.10;;;0.77;;
69744;SDS011;57015;50.120;-5.168;2022-09-09T14:14:28;9.85;;;0.95;;
69744;SDS011;57015;50.120;-5.168;2022-09-09T14:16:54;9.70;;;1.00;;
69744;SDS011;57015;50.120;-5.168;2022-09-09T14:19:19;5.87;;;0.80;;
69744;SDS011;57015;50.120;-5.168;2022-09-09T14:21:44;10.53;;;1.27;;
69744;SDS011;57015;50.120;-5.168;2022-09-09T14:24:10;5.60;;;1.30;;
69744;SDS011;57015;50.120;-5.168;2022-09-09T14:26:35;6.37;;;1.13;;
69744;SDS011;57015;50.120;-5.168;2022-09-09T14:29:01;20.70;;;2.07;;
69744;SDS011;57015;50.120;-5.168;2022-09-09T14:31:27;12.43;;;1.08;;
69744;SDS011;57015;50.120;-5.168;2022-09-09T14:33:52;8.93;;;1.30;;
69744;SDS011;57015;50.120;-5.168;2022-09-09T14:36:18;8.40;;;1.13;;
69744;SDS011;57015;50.120;-5.168;2022-09-09T14:38:43;5.88;;;1.30;;
69744;SDS011;57015;50.120;-5.168;2022-09-09T14:41:10;8.27;;;0.90;;
69744;SDS011;57015;50.120;-5.168;2022-09-09T14:43:39;5.33;;;1.07;;
69744;SDS011;57015;50.120;-5.168;2022-09-09T14:46:05;7.35;;;1.10;;
69744;SDS011;57015;50.120;-5.168;2022-09-09T14:48:35;5.97;;;0.90;;
69744;SDS011;57015;50.120;-5.168;2022-09-09T14:51:05;5.97;;;0.70;;
69744;SDS011;57015;50.120;-5.168;2022-09-09T14:53:34;5.32;;;0.88;;
69744;SDS011;57015;50.120;-5.168;2022-09-09T14:56:04;6.27;;;1.13;;
69744;SDS011;57015;50.120;-5.168;2022-09-09T14:58:34;8.98;;;1.00;;
69744;SDS011;57015;50.120;-5.168;2022-09-09T15:01:10;6.97;;;0.98;;
69744;SDS011;57015;50.120;-5.168;2022-09-09T15:03:37;4.22;;;1.13;;
69744;SDS011;57015;50.120;-5.168;2022-09-09T15:06:06;5.40;;;0.93;;
69744;SDS011;57015;50.120;-5.168;2022-09-09T15:08:33;8.43;;;1.05;;
69744;SDS011;57015;50.120;-5.168;2022-09-09T15:11:00;7.75;;;1.33;;
69744;SDS011;57015;50.120;-5.168;2022-09-09T15:13:27;8.20;;;1.27;;
69744;SDS011;57015;50.120;-5.168;2022-09-09T15:15:53;8.57;;;1.63;;
69744;SDS011;57015;50.120;-5.168;2022-09-09T15:18:19;6.88;;;1.30;;
69744;SDS011;57015;50.120;-5.168;2022-09-09T15:20:45;13.40;;;1.95;;
69744;SDS011;57015;50.120;-5.168;2022-09-09T15:23:11;6.65;;;1.00;;
69744;SDS011;57015;50.120;-5.168;2022-09-09T15:25:37;11.13;;;0.93;;
69744;SDS011;57015;50.120;-5.168;2022-09-09T15:28:02;9.93;;;1.20;;
69744;SDS011;57015;50.120;-5.168;2022-09-09T15:30:27;8.02;;;1.70;;
69744;SDS011;57015;50.120;-5.168;2022-09-09T15:32:53;5.40;;;1.10;;
69744;SDS011;57015;50.120;-5.168;2022-09-09T15:35:19;7.83;;;1.10;;
69744;SDS011;57015;50.120;-5.168;2022-09-09T15:37:45;6.50;;;1.35;;
69744;SDS011;57015;50.120;-5.168;2022-09-09T15:40:10;8.80;;;1.00;;
69744;SDS011;57015;50.120;-5.168;2022-09-09T15:42:35;5.00;;;1.33;;
69744;SDS011;57015;50.120;-5.168;2022-09-09T15:45:01;8.90;;;1.60;;
69744;SDS011;57015;50.120;-5.168;2022-09-09T15:47:26;7.10;;;1.10;;
69744;SDS011;57015;50.120;-5.168;2022-09-09T15:49:52;9.05;;;1.15;;
69744;SDS011;57015;50.120;-5.168;2022-09-09T15:52:17;12.93;;;1.77;;
69744;SDS011;57015;50.120;-5.168;2022-09-09T15:54:43;7.57;;;1.30;;
69744;SDS011;57015;50.120;-5.168;2022-09-09T15:57:11;11.18;;;1.60;;
69744;SDS011;57015;50.120;-5.168;2022-09-09T15:59:37;8.68;;;1.73;;
69744;SDS011;57015;50.120;-5.168;2022-09-09T16:02:02;8.30;;;1.40;;
69744;SDS011;57015;50.120;-5.168;2022-09-09T16:04:29;7.93;;;1.75;;
69744;SDS011;57015;50.120;-5.168;2022-09-09T16:06:55;10.93;;;1.60;;
69744;SDS011;57015;50.120;-5.168;2022-09-09T16:09:25;14.27;;;1.63;;
69744;SDS011;57015;50.120;-5.168;2022-09-09T16:11:51;10.85;;;1.70;;
69744;SDS011;57015;50.120;-5.168;2022-09-09T16:14:18;10.90;;;1.70;;
69744;SDS011;57015;50.120;-5.168;2022-09-09T16:16:43;4.27;;;1.17;;
69744;SDS011;57015;50.120;-5.168;2022-09-09T16:19:10;8.57;;;1.07;;
69744;SDS011;57015;50.120;-5.168;2022-09-09T16:21:41;6.75;;;1.35;;
69744;SDS011;57015;50.120;-5.168;2022-09-09T16:24:09;9.05;;;1.05;;
69744;SDS011;57015;50.120;-5.168;2022-09-09T16:26:37;10.88;;;1.65;;
69744;SDS011;57015;50.120;-5.168;2022-09-09T16:29:04;6.73;;;1.20;;
69744;SDS011;57015;50.120;-5.168;2022-09-09T16:31:30;9.60;;;1.30;;
69744;SDS011;57015;50.120;-5.168;2022-09-09T16:33:56;10.80;;;1.60;;
69744;SDS011;57015;50.120;-5.168;2022-09-09T16:36:23;10.32;;;1.00;;
69744;SDS011;57015;50.120;-5.168;2022-09-09T16:38:59;8.50;;;1.57;;
69744;SDS011;57015;50.120;-5.168;2022-09-09T16:41:27;8.15;;;1.23;;
69744;SDS011;57015;50.120;-5.168;2022-09-09T16:43:57;6.68;;;1.50;;
69744;SDS011;57015;50.120;-5.168;2022-09-09T16:46:24;8.15;;;1.30;;
69744;SDS011;57015;50.120;-5.168;2022-09-09T16:48:52;9.73;;;1.63;;
69744;SDS011;57015;50.120;-5.168;2022-09-09T16:53:47;8.75;;;1.65;;
69744;SDS011;57015;50.120;-5.168;2022-09-09T16:56:13;12.20;;;1.30;;
69744;SDS011;57015;50.120;-5.168;2022-09-09T16:58:41;8.63;;;1.00;;
69744;SDS011;57015;50.120;-5.168;2022-09-09T17:01:10;10.43;;;1.52;;
69744;SDS011;57015;50.120;-5.168;2022-09-09T17:03:39;10.45;;;1.17;;
69744;SDS011;57015;50.120;-5.168;2022-09-09T17:06:08;9.90;;;1.13;;
69744;SDS011;57015;50.120;-5.168;2022-09-09T17:08:40;7.05;;;1.60;;
69744;SDS011;57015;50.120;-5.168;2022-09-09T17:11:17;5.15;;;1.15;;
69744;SDS011;57015;50.120;-5.168;2022-09-09T17:13:44;6.63;;;1.13;;
69744;SDS011;57015;50.120;-5.168;2022-09-09T17:16:11;10.07;;;1.30;;
69744;SDS011;57015;50.120;-5.168;2022-09-09T17:18:37;9.18;;;1.88;;
69744;SDS011;57015;50.120;-5.168;2022-09-09T17:21:07;8.02;;;1.58;;